Elbow Lake, MN (56531)

3:11 PM CDT on October 31, 2014 (GMT -0500)
Elbow Lake | Change Station
CLOSE
Current Station
Airport
Location: Elbow Lake,
Elevation: 1204 ft
Nearby Weather Stations

Elev 1204 ft 45.99 °N, 95.99 °W | Updated 15 minutes ago

Clear
Clear
37 °F
Feels Like 31 °F
N
7
Wind Variable Wind from South

Today
High -- | Low -- °F
--% Chance of Precip.
Yesterday
High -- | Low -- °F
Precip. -- in
8:03 AM 6:11 PM
First Quarter, 58% visible
Pressure 30.50 in
Visibility 10.0 miles
Clouds Clear
Windchill 31 °F
Dew Point 22 °F
Humidity 54%
Rainfall 0.00 in
Snow Depth Not available.
UV 2 out of 12
Pollen .10 out of 12
Air Quality Not available.
Flu Activity Not available.
METAR KY63 311956Z AUTO 18006KT 10SM CLR 03/M06 A3050 RMK AO2 T00271058

More Conditions Fewer Conditions

Pressure 30.50 in
Visibility 10.0 miles
Clouds Clear
Windchill 31 °F
Dew Point 22 °F
Humidity 54%
Rainfall 0.00 in
Snow Depth Not available.
UV 2 out of 12
Pollen .10 out of 12
Air Quality Not available.
Flu Activity Not available.
METAR KY63 311956Z AUTO 18006KT 10SM CLR 03/M06 A3050 RMK AO2 T00271058

More Conditions Fewer Conditions

10-Day Weather Forecast

Almanac

Astronomy

Oct. 31, 2014 Rise Set
Actual Time
Civil Twilight
Nautical Twilight
Astronomical Twilight
Moon
Length of Visible Light
Length of Day
Tomorrow will be .
, % of the Moon is Illuminated

Today's Extremes

State Highs State Lows

Community

WunderPhotos

Upload Photos

1,766,717 photos uploaded!

WunderBlogs® & News

Nearby

Air Quality

  Air Quality AQ Index Pollutant
Not available.

Snow Depth

Station Depth Elevation

Earthquake Activity

City Distance Mag. Time & Date
Minimum magnitude displayed is 2.5.

Coastal Water Temperatures

Place Temperature

Nearby Weather Stations